createdAt,value
2018-07-11T00:01:16.004Z,2.00
2018-07-11T00:03:46.368Z,1.60
2018-07-11T00:06:15.913Z,1.70
2018-07-11T00:08:44.287Z,1.80
2018-07-11T00:11:12.868Z,2.00
2018-07-11T00:13:42.871Z,1.93
2018-07-11T00:16:11.277Z,1.90
2018-07-11T00:18:40.164Z,1.70
2018-07-11T00:21:08.503Z,1.80
2018-07-11T00:23:36.908Z,1.87
2018-07-11T00:26:06.179Z,1.90
2018-07-11T00:28:34.481Z,2.50
2018-07-11T00:31:02.892Z,1.97
2018-07-11T00:33:31.428Z,1.90
2018-07-11T00:35:59.791Z,1.93
2018-07-11T00:38:28.232Z,2.30
2018-07-11T00:40:56.605Z,2.00
2018-07-11T00:43:24.752Z,2.30
2018-07-11T00:45:59.119Z,2.03
2018-07-11T00:48:27.422Z,2.40
2018-07-11T00:50:56.904Z,2.23
2018-07-11T00:53:25.584Z,2.37
2018-07-11T00:55:54.054Z,2.07
2018-07-11T00:58:27.693Z,2.20
2018-07-11T01:01:07.437Z,2.50
2018-07-11T01:06:16.258Z,2.10
2018-07-11T01:08:44.692Z,1.90
2018-07-11T01:11:15.213Z,2.20
2018-07-11T01:13:44.778Z,2.00
2018-07-11T01:16:15.656Z,2.40
2018-07-11T01:18:47.044Z,1.90
2018-07-11T01:21:15.345Z,2.10
2018-07-11T01:23:43.692Z,2.00
2018-07-11T01:26:12.130Z,2.07
2018-07-11T01:28:40.488Z,2.23
2018-07-11T01:31:08.851Z,2.13
2018-07-11T01:33:37.307Z,2.50
2018-07-11T01:36:05.697Z,2.20
2018-07-11T01:38:34.070Z,2.10
2018-07-11T01:41:02.555Z,2.23
2018-07-11T01:43:30.905Z,2.00
2018-07-11T01:45:59.232Z,2.80
2018-07-11T01:48:27.564Z,2.67
2018-07-11T01:50:55.995Z,2.30
2018-07-11T01:53:24.434Z,2.57
2018-07-11T01:55:52.791Z,2.17
2018-07-11T01:58:21.157Z,2.20
2018-07-11T02:00:49.494Z,2.60
2018-07-11T02:03:17.984Z,2.30
2018-07-11T02:05:46.368Z,3.30
2018-07-11T02:08:14.716Z,2.90
2018-07-11T02:10:43.112Z,2.60
2018-07-11T02:13:11.458Z,2.70
2018-07-11T02:15:40.100Z,2.50
2018-07-11T02:18:08.468Z,2.70
2018-07-11T02:20:36.834Z,2.57
2018-07-11T02:23:05.634Z,2.50
2018-07-11T02:25:33.936Z,2.67
2018-07-11T02:28:02.262Z,2.40
2018-07-11T02:30:30.606Z,2.70
2018-07-11T02:32:58.964Z,2.40
2018-07-11T02:35:27.650Z,2.90
2018-07-11T02:37:55.960Z,2.93
2018-07-11T02:40:24.332Z,2.70
2018-07-11T02:42:52.700Z,3.10
2018-07-11T02:45:21.053Z,2.83
2018-07-11T02:47:49.413Z,3.10
2018-07-11T02:50:17.799Z,2.93
2018-07-11T02:52:46.181Z,2.70
2018-07-11T02:55:14.601Z,2.90
2018-07-11T02:57:43.015Z,2.87
2018-07-11T03:00:11.405Z,3.03
2018-07-11T03:02:39.806Z,3.27
2018-07-11T03:05:08.256Z,3.10
2018-07-11T03:07:36.634Z,3.30
2018-07-11T03:10:04.922Z,2.97
2018-07-11T03:12:33.332Z,3.50
2018-07-11T03:15:01.694Z,3.40
2018-07-11T03:17:30.060Z,3.33
2018-07-11T03:19:58.381Z,3.00
2018-07-11T03:22:26.739Z,3.40
2018-07-11T03:24:55.223Z,2.73
2018-07-11T03:27:23.576Z,3.23
2018-07-11T03:29:51.934Z,2.80
2018-07-11T03:32:20.286Z,3.20
2018-07-11T03:34:48.651Z,3.50
2018-07-11T03:37:17.017Z,3.17
2018-07-11T03:39:45.392Z,3.40
2018-07-11T03:42:13.747Z,3.30
2018-07-11T03:44:42.107Z,3.40
2018-07-11T03:47:10.552Z,2.87
2018-07-11T03:49:38.937Z,3.50
2018-07-11T03:52:07.306Z,3.13
2018-07-11T03:54:35.635Z,3.33
2018-07-11T03:57:03.996Z,3.20
2018-07-11T03:59:32.328Z,3.20
2018-07-11T04:02:00.664Z,3.33
2018-07-11T04:04:28.989Z,3.93
2018-07-11T04:06:57.368Z,3.63
2018-07-11T04:09:25.760Z,3.70
2018-07-11T04:11:54.307Z,3.57
2018-07-11T04:14:22.752Z,3.27
2018-07-11T04:16:51.110Z,3.40
2018-07-11T04:19:19.448Z,3.60
2018-07-11T04:21:47.823Z,3.67
2018-07-11T04:24:16.180Z,3.63
2018-07-11T04:26:44.544Z,3.40
2018-07-11T04:29:13.010Z,3.97
2018-07-11T04:31:41.331Z,3.60
2018-07-11T04:34:09.740Z,3.50
2018-07-11T04:36:38.192Z,3.20
2018-07-11T04:39:06.504Z,3.53
2018-07-11T04:41:34.929Z,3.37
2018-07-11T04:44:03.396Z,3.70
2018-07-11T04:46:31.770Z,3.20
2018-07-11T04:49:00.408Z,3.80
2018-07-11T04:51:28.808Z,3.70
2018-07-11T04:53:57.182Z,3.53
2018-07-11T04:56:25.720Z,3.63
2018-07-11T04:58:54.247Z,3.43
2018-07-11T05:01:22.411Z,3.33
2018-07-11T05:03:50.755Z,3.47
2018-07-11T05:06:19.146Z,3.83
2018-07-11T05:08:47.552Z,4.37
2018-07-11T05:11:15.920Z,2.93
2018-07-11T05:13:44.177Z,3.60
2018-07-11T05:16:12.571Z,3.83
2018-07-11T05:18:40.864Z,4.57
2018-07-11T05:21:09.224Z,3.73
2018-07-11T05:23:37.595Z,3.97
2018-07-11T05:26:05.950Z,3.87
2018-07-11T05:28:34.333Z,4.03
2018-07-11T05:31:02.673Z,4.40
2018-07-11T05:33:31.003Z,3.90
2018-07-11T05:35:59.377Z,4.10
2018-07-11T05:38:27.779Z,3.57
2018-07-11T05:40:56.184Z,3.97
2018-07-11T05:43:24.527Z,4.07
2018-07-11T05:45:52.879Z,3.43
2018-07-11T05:48:22.013Z,3.63
2018-07-11T05:50:50.376Z,3.87
2018-07-11T05:53:18.683Z,3.50
2018-07-11T05:55:47.105Z,4.53
2018-07-11T05:58:15.473Z,4.00
2018-07-11T06:00:43.872Z,4.30
2018-07-11T06:03:12.258Z,4.00
2018-07-11T06:05:40.650Z,4.27
2018-07-11T06:08:09.007Z,4.00
2018-07-11T06:10:37.346Z,3.37
2018-07-11T06:13:05.816Z,3.67
2018-07-11T06:15:34.168Z,3.93
2018-07-11T06:18:02.529Z,4.30
2018-07-11T06:20:30.926Z,4.00
2018-07-11T06:22:59.333Z,3.33
2018-07-11T06:25:28.164Z,3.60
2018-07-11T06:27:56.695Z,3.80
2018-07-11T06:30:25.049Z,4.20
2018-07-11T06:32:53.377Z,4.23
2018-07-11T06:35:21.779Z,4.67
2018-07-11T06:37:50.127Z,4.70
2018-07-11T06:40:18.500Z,3.60
2018-07-11T06:42:46.908Z,5.20
2018-07-11T06:45:15.193Z,4.87
2018-07-11T06:47:43.536Z,4.67
2018-07-11T06:50:11.953Z,5.10
2018-07-11T06:52:40.321Z,4.87
2018-07-11T06:55:08.648Z,5.30
2018-07-11T06:57:37.083Z,4.60
2018-07-11T07:00:05.496Z,4.20
2018-07-11T07:02:33.812Z,4.57
2018-07-11T07:05:02.200Z,4.27
2018-07-11T07:07:30.516Z,4.63
2018-07-11T07:09:59.400Z,4.20
2018-07-11T07:12:27.822Z,4.53
2018-07-11T07:14:56.153Z,4.43
2018-07-11T07:17:24.868Z,4.80
2018-07-11T07:19:53.387Z,4.87
2018-07-11T07:22:21.754Z,4.73
2018-07-11T07:24:50.136Z,5.30
2018-07-11T07:27:18.517Z,5.10
2018-07-11T07:29:46.886Z,4.53
2018-07-11T07:32:15.324Z,5.53
2018-07-11T07:34:43.746Z,5.60
2018-07-11T07:37:12.077Z,4.93
2018-07-11T07:39:40.450Z,5.70
2018-07-11T07:42:08.875Z,6.17
2018-07-11T07:44:37.281Z,5.90
2018-07-11T07:47:05.703Z,5.47
2018-07-11T07:49:34.046Z,5.57
2018-07-11T07:52:02.455Z,5.10
2018-07-11T07:54:30.846Z,5.43
2018-07-11T07:56:59.621Z,5.30
2018-07-11T07:59:28.012Z,5.80
2018-07-11T08:01:56.644Z,4.33
2018-07-11T08:04:24.987Z,5.33
2018-07-11T08:06:53.703Z,4.33
2018-07-11T08:09:22.027Z,4.13
2018-07-11T08:11:50.391Z,4.40
2018-07-11T08:14:18.771Z,3.97
2018-07-11T08:16:47.731Z,4.30
2018-07-11T08:19:16.142Z,4.30
2018-07-11T08:21:44.561Z,4.23
2018-07-11T08:24:24.137Z,4.57
2018-07-11T08:27:06.539Z,4.00
2018-07-11T08:29:45.912Z,3.90
2018-07-11T08:34:34.311Z,4.20
2018-07-11T08:37:15.069Z,4.00
2018-07-11T08:40:07.328Z,4.97
2018-07-11T08:42:47.137Z,3.77
2018-07-11T08:45:26.877Z,3.90
2018-07-11T08:50:21.725Z,4.00
2018-07-11T08:53:00.195Z,4.23
2018-07-11T08:56:44.808Z,4.23
2018-07-11T09:00:00.961Z,4.10
2018-07-11T09:03:01.855Z,3.60
2018-07-11T09:05:43.202Z,4.17
2018-07-11T09:10:25.411Z,4.07
2018-07-11T09:16:06.972Z,4.13
2018-07-11T09:20:50.305Z,3.93
2018-07-11T09:25:27.597Z,3.13
2018-07-11T09:27:55.989Z,3.30
2018-07-11T09:30:24.377Z,3.83
2018-07-11T09:32:52.744Z,3.87
2018-07-11T09:35:21.132Z,4.10
2018-07-11T09:37:49.444Z,4.40
2018-07-11T09:40:17.831Z,4.07
2018-07-11T09:42:47.074Z,3.47
2018-07-11T09:45:15.512Z,4.60
2018-07-11T09:47:43.914Z,3.73
2018-07-11T09:50:12.728Z,4.10
2018-07-11T09:52:41.212Z,4.00
2018-07-11T09:55:09.569Z,3.47
2018-07-11T09:57:39.247Z,3.33
2018-07-11T10:00:12.268Z,3.53
2018-07-11T10:02:40.940Z,3.40
2018-07-11T10:05:09.411Z,3.77
2018-07-11T10:07:37.800Z,3.80
2018-07-11T10:10:06.177Z,3.37
2018-07-11T10:12:34.563Z,4.17
2018-07-11T10:15:02.857Z,3.90
2018-07-11T10:17:31.176Z,3.90
2018-07-11T10:19:59.528Z,4.00
2018-07-11T10:22:27.886Z,3.63
2018-07-11T10:24:56.228Z,4.23
2018-07-11T10:27:24.548Z,4.20
2018-07-11T10:29:52.950Z,4.60
2018-07-11T10:32:21.364Z,3.60
2018-07-11T10:34:49.820Z,4.40
2018-07-11T10:37:18.216Z,4.00
2018-07-11T10:39:46.639Z,4.03
2018-07-11T10:42:15.322Z,4.77
2018-07-11T10:44:43.733Z,4.37
2018-07-11T10:47:13.464Z,3.90
2018-07-11T10:49:43.032Z,3.97
2018-07-11T10:52:11.480Z,4.83
2018-07-11T10:54:40.096Z,4.07
2018-07-11T10:57:08.619Z,3.90
2018-07-11T10:59:37.840Z,4.03
2018-07-11T11:02:06.288Z,4.07
2018-07-11T11:04:34.684Z,4.33
2018-07-11T11:07:03.020Z,4.47
2018-07-11T11:09:31.342Z,4.40
2018-07-11T11:11:59.794Z,4.73
2018-07-11T11:14:28.109Z,4.70
2018-07-11T11:16:56.503Z,5.13
2018-07-11T11:19:24.884Z,5.07
2018-07-11T11:21:53.359Z,4.93
2018-07-11T11:24:21.744Z,4.80
2018-07-11T11:26:50.018Z,4.73
2018-07-11T11:29:18.358Z,4.97
2018-07-11T11:31:46.700Z,5.40
2018-07-11T11:34:15.064Z,4.40
2018-07-11T11:36:43.421Z,4.57
2018-07-11T11:39:11.770Z,6.27
2018-07-11T11:41:40.315Z,5.50
2018-07-11T11:44:08.657Z,5.00
2018-07-11T11:46:37.032Z,5.07
2018-07-11T11:49:05.463Z,4.30
2018-07-11T11:51:33.905Z,5.10
2018-07-11T11:54:02.344Z,4.87
2018-07-11T11:56:30.752Z,5.90
2018-07-11T11:58:59.140Z,5.07
2018-07-11T12:01:27.584Z,5.37
2018-07-11T12:03:55.969Z,5.63
2018-07-11T12:06:24.503Z,5.30
2018-07-11T12:08:52.871Z,5.93
2018-07-11T12:11:21.287Z,5.37
2018-07-11T12:13:49.606Z,5.53
2018-07-11T12:16:17.945Z,5.20
2018-07-11T12:18:46.336Z,4.77
2018-07-11T12:21:14.758Z,5.53
2018-07-11T12:23:43.020Z,6.33
2018-07-11T12:26:11.960Z,5.53
2018-07-11T12:28:40.364Z,5.17
2018-07-11T12:31:08.708Z,6.43
2018-07-11T12:33:37.040Z,6.43
2018-07-11T12:36:05.403Z,5.33
2018-07-11T12:38:33.879Z,4.83
2018-07-11T12:41:02.252Z,4.60
2018-07-11T12:43:30.660Z,5.60
2018-07-11T12:45:59.160Z,4.73
2018-07-11T12:48:33.427Z,5.30
2018-07-11T12:51:02.332Z,5.90
2018-07-11T12:53:30.774Z,6.13
2018-07-11T12:55:59.219Z,5.50
2018-07-11T12:58:27.735Z,5.87
2018-07-11T13:00:56.104Z,4.67
2018-07-11T13:03:24.914Z,4.30
2018-07-11T13:05:53.302Z,4.40
2018-07-11T13:08:22.204Z,4.50
2018-07-11T13:10:50.918Z,4.30
2018-07-11T13:13:19.618Z,4.80
2018-07-11T13:15:47.929Z,5.17
2018-07-11T13:18:16.244Z,4.87
2018-07-11T13:20:44.601Z,5.43
2018-07-11T13:23:12.762Z,5.20
2018-07-11T13:25:41.188Z,4.87
2018-07-11T13:28:09.516Z,3.97
2018-07-11T13:30:37.895Z,4.13
2018-07-11T13:33:06.311Z,4.80
2018-07-11T13:35:34.801Z,3.80
2018-07-11T13:38:03.215Z,4.50
2018-07-11T13:40:31.821Z,4.97
2018-07-11T13:43:00.158Z,3.80
2018-07-11T13:45:28.549Z,3.67
2018-07-11T13:48:02.639Z,4.70
2018-07-11T13:50:33.224Z,4.10
2018-07-11T13:53:01.980Z,4.70
2018-07-11T13:55:30.455Z,3.50
2018-07-11T13:58:00.068Z,4.87
2018-07-11T14:00:28.648Z,4.00
2018-07-11T14:02:57.128Z,4.50
2018-07-11T14:05:27.427Z,4.10
2018-07-11T14:07:55.492Z,5.20
2018-07-11T14:10:23.835Z,4.00
2018-07-11T14:12:52.209Z,4.73
2018-07-11T14:15:20.623Z,6.53
2018-07-11T14:17:48.987Z,6.37
2018-07-11T14:20:17.312Z,5.77
2018-07-11T14:22:47.253Z,5.60
2018-07-11T14:25:16.093Z,4.87
2018-07-11T14:27:46.630Z,5.40
2018-07-11T14:30:14.933Z,6.23
2018-07-11T14:32:51.645Z,6.80
2018-07-11T14:35:20.143Z,5.27
2018-07-11T14:37:49.376Z,6.23
2018-07-11T14:40:17.871Z,6.57
2018-07-11T14:42:46.582Z,5.10
2018-07-11T14:45:15.304Z,5.07
2018-07-11T14:47:49.150Z,5.90
2018-07-11T14:50:17.957Z,5.73
2018-07-11T14:52:46.934Z,5.03
2018-07-11T14:55:15.365Z,6.77
2018-07-11T14:57:43.784Z,5.70
2018-07-11T15:00:12.176Z,5.90
2018-07-11T15:02:40.584Z,5.90
2018-07-11T15:05:08.939Z,6.47
2018-07-11T15:07:37.505Z,6.77
2018-07-11T15:10:05.928Z,5.70
2018-07-11T15:12:34.392Z,5.83
2018-07-11T15:15:02.777Z,5.97
2018-07-11T15:17:31.636Z,5.97
2018-07-11T15:20:00.054Z,6.13
2018-07-11T15:22:28.440Z,6.23
2018-07-11T15:24:57.216Z,5.97
2018-07-11T15:27:25.823Z,6.23
2018-07-11T15:29:55.286Z,6.47
2018-07-11T15:32:23.681Z,7.57
2018-07-11T15:34:52.073Z,7.43
2018-07-11T15:37:20.153Z,6.17
2018-07-11T15:39:48.524Z,6.37
2018-07-11T15:42:16.962Z,6.27
2018-07-11T15:44:45.339Z,7.17
2018-07-11T15:47:14.258Z,6.23
2018-07-11T15:49:42.678Z,6.60
2018-07-11T15:52:11.207Z,6.00
2018-07-11T15:54:40.321Z,5.63
2018-07-11T15:57:08.796Z,5.90
2018-07-11T15:59:43.851Z,6.00
2018-07-11T16:02:12.124Z,6.00
2018-07-11T16:04:40.696Z,5.57
2018-07-11T16:07:10.046Z,5.27
2018-07-11T16:09:54.839Z,5.63
2018-07-11T16:12:23.844Z,5.50
2018-07-11T16:14:52.191Z,5.67
2018-07-11T16:17:21.316Z,4.90
2018-07-11T16:19:49.700Z,5.97
2018-07-11T16:22:18.136Z,6.23
2018-07-11T16:24:46.626Z,5.77
2018-07-11T16:27:15.014Z,6.17
2018-07-11T16:29:43.613Z,7.03
2018-07-11T16:32:12.097Z,6.57
2018-07-11T16:34:40.504Z,6.00
2018-07-11T16:37:08.725Z,6.07
2018-07-11T16:39:37.138Z,5.47
2018-07-11T16:42:06.595Z,5.57
2018-07-11T16:44:35.341Z,5.00
2018-07-11T16:47:04.892Z,5.57
2018-07-11T16:49:33.365Z,5.97
2018-07-11T16:52:03.009Z,6.33
2018-07-11T16:54:31.641Z,5.77
2018-07-11T16:57:00.895Z,5.53
2018-07-11T16:59:36.808Z,5.47
2018-07-11T17:02:06.279Z,5.77
2018-07-11T17:04:35.205Z,6.07
2018-07-11T17:07:06.657Z,5.40
2018-07-11T17:09:38.525Z,6.00
2018-07-11T17:12:08.478Z,5.93
2018-07-11T17:14:37.048Z,5.63
2018-07-11T17:17:05.505Z,5.87
2018-07-11T17:20:08.764Z,6.17
2018-07-11T17:22:46.696Z,5.73
2018-07-11T17:25:15.040Z,5.50
2018-07-11T17:27:43.459Z,5.20
2018-07-11T17:30:11.873Z,6.60
2018-07-11T17:32:40.226Z,5.90
2018-07-11T17:35:08.698Z,6.50
2018-07-11T17:37:37.937Z,4.60
2018-07-11T17:40:08.080Z,5.57
2018-07-11T17:42:36.537Z,5.17
2018-07-11T17:45:09.364Z,5.13
2018-07-11T17:47:49.053Z,5.60
2018-07-11T17:50:17.536Z,5.80
2018-07-11T17:52:54.036Z,5.33
2018-07-11T17:55:31.775Z,5.20
2018-07-11T17:58:04.520Z,4.63
2018-07-11T18:00:42.661Z,5.00
2018-07-11T18:03:20.273Z,4.10
2018-07-11T18:05:56.457Z,4.53
2018-07-11T18:08:30.450Z,4.90
2018-07-11T18:10:59.450Z,4.20
2018-07-11T18:13:35.373Z,3.97
2018-07-11T18:17:16.645Z,4.00
2018-07-11T18:19:55.207Z,4.47
2018-07-11T18:23:29.464Z,4.53
2018-07-11T18:26:24.889Z,4.03
2018-07-11T18:29:26.230Z,4.40
2018-07-11T18:32:13.442Z,4.60
2018-07-11T18:35:25.784Z,4.10
2018-07-11T18:37:59.296Z,3.77
2018-07-11T18:40:37.520Z,4.63
2018-07-11T18:45:24.497Z,4.07
2018-07-11T18:50:09.476Z,4.30
2018-07-11T18:52:48.449Z,4.10
2018-07-11T18:55:23.554Z,3.80
2018-07-11T18:58:42.032Z,3.93
2018-07-11T19:01:22.736Z,4.40
2018-07-11T19:04:01.615Z,4.33
2018-07-11T19:06:37.441Z,3.63
2018-07-11T19:09:08.308Z,4.10
2018-07-11T19:11:48.082Z,4.20
2018-07-11T19:14:21.880Z,4.20
2018-07-11T19:16:59.407Z,3.70
2018-07-11T19:19:33.006Z,3.90
2018-07-11T19:22:02.680Z,3.87
2018-07-11T19:24:42.292Z,4.30
2018-07-11T19:27:21.260Z,4.07
2018-07-11T19:30:15.728Z,4.30
2018-07-11T19:32:52.580Z,3.30
2018-07-11T19:35:34.063Z,4.40
2018-07-11T19:38:02.824Z,4.10
2018-07-11T19:41:04.415Z,4.57
2018-07-11T19:43:42.063Z,4.03
2018-07-11T19:46:19.888Z,4.10
2018-07-11T19:48:59.698Z,4.10
2018-07-11T19:51:39.760Z,4.00
2018-07-11T19:54:33.940Z,3.83
2018-07-11T19:57:02.496Z,4.00
2018-07-11T19:59:31.022Z,4.00
2018-07-11T20:02:00.351Z,4.23
2018-07-11T20:04:28.824Z,3.70
2018-07-11T20:06:57.270Z,3.70
2018-07-11T20:09:25.997Z,4.00
2018-07-11T20:11:54.525Z,4.00
2018-07-11T20:14:23.105Z,4.70
2018-07-11T20:16:51.808Z,4.50
2018-07-11T20:19:20.268Z,3.60
2018-07-11T20:21:48.626Z,4.87
2018-07-11T20:24:17.125Z,4.03
2018-07-11T20:26:45.582Z,4.43
2018-07-11T20:29:14.058Z,4.80
2018-07-11T20:31:42.480Z,4.30
2018-07-11T20:34:10.846Z,4.20
2018-07-11T20:36:39.216Z,4.37
2018-07-11T20:39:07.728Z,4.70
2018-07-11T20:41:36.166Z,4.30
2018-07-11T20:44:04.819Z,4.53
2018-07-11T20:46:34.303Z,4.53
2018-07-11T20:49:08.218Z,4.77
2018-07-11T20:51:36.632Z,3.93
2018-07-11T20:54:05.264Z,4.47
2018-07-11T20:56:33.870Z,4.33
2018-07-11T20:59:13.659Z,5.30
2018-07-11T21:01:53.771Z,4.73
2018-07-11T21:05:02.182Z,4.80
2018-07-11T21:08:40.344Z,5.20
2018-07-11T21:13:22.186Z,4.97
2018-07-11T21:16:01.605Z,5.27
2018-07-11T21:18:47.070Z,5.30
2018-07-11T21:21:15.633Z,5.40
2018-07-11T21:23:44.083Z,4.80
2018-07-11T21:26:12.542Z,5.03
2018-07-11T21:28:41.042Z,5.40
2018-07-11T21:31:09.810Z,5.43
2018-07-11T21:33:38.309Z,5.50
2018-07-11T21:36:06.781Z,5.23
2018-07-11T21:38:35.322Z,5.20
2018-07-11T21:41:03.794Z,4.43
2018-07-11T21:43:32.609Z,4.83
2018-07-11T21:46:01.091Z,4.93
2018-07-11T21:48:29.600Z,5.30
2018-07-11T21:50:58.042Z,4.50
2018-07-11T21:53:26.532Z,4.43
2018-07-11T21:55:55.008Z,4.63
2018-07-11T21:58:23.514Z,5.00
2018-07-11T22:00:51.950Z,4.30
2018-07-11T22:03:20.391Z,4.93
2018-07-11T22:05:48.901Z,4.43
2018-07-11T22:08:17.374Z,4.67
2018-07-11T22:10:45.884Z,4.87
2018-07-11T22:13:14.406Z,4.57
2018-07-11T22:15:42.883Z,4.83
2018-07-11T22:18:23.121Z,4.80
2018-07-11T22:20:50.513Z,5.87
2018-07-11T22:23:17.850Z,5.13
2018-07-11T22:25:45.646Z,5.30
2018-07-11T22:28:13.029Z,5.23
2018-07-11T22:30:40.414Z,5.20
2018-07-11T22:33:07.786Z,4.83
2018-07-11T22:35:35.390Z,5.17
2018-07-11T22:38:02.791Z,5.10
2018-07-11T22:40:30.169Z,5.27
2018-07-11T22:42:57.541Z,6.10
2018-07-11T22:45:24.937Z,5.40
2018-07-11T22:47:52.361Z,5.33
2018-07-11T22:50:19.759Z,5.50
2018-07-11T22:52:47.138Z,5.50
2018-07-11T22:55:14.525Z,5.30
2018-07-11T22:57:41.878Z,5.40
2018-07-11T23:00:09.283Z,4.97
2018-07-11T23:02:37.057Z,5.10
2018-07-11T23:05:04.470Z,5.50
2018-07-11T23:07:31.855Z,5.57
2018-07-11T23:09:59.250Z,5.83
2018-07-11T23:12:26.664Z,5.47
2018-07-11T23:14:54.393Z,5.20
2018-07-11T23:17:28.748Z,5.43
2018-07-11T23:19:56.133Z,4.97
2018-07-11T23:22:23.518Z,5.67
2018-07-11T23:24:51.226Z,5.50
2018-07-11T23:27:18.631Z,5.77
2018-07-11T23:29:46.070Z,5.47
2018-07-11T23:32:13.465Z,5.47
2018-07-11T23:34:40.915Z,5.50
2018-07-11T23:37:08.309Z,5.53
2018-07-11T23:39:35.718Z,5.93
2018-07-11T23:42:03.574Z,5.67
2018-07-11T23:44:30.928Z,6.17
2018-07-11T23:46:58.372Z,6.10
2018-07-11T23:49:25.749Z,5.70
2018-07-11T23:51:53.122Z,5.87
2018-07-11T23:54:20.520Z,6.07
2018-07-11T23:56:47.914Z,5.70
2018-07-11T23:59:15.303Z,5.57
